KSLE/SLE METAR and TAF weather

Enter ICAO airport designator
Station Type Date Time Source
KSLE METAR 2019/12/16 05:56 UTC NOAA

KSLE 160556Z AUTO 00000KT 5SM BR SCT032 02/01 A3030 RMK AO2 SLP261 T00170011 10061 20011 53004


Station Type Date Time Source
KSLE Decoded METAR 2019/12/16 05:56 UTC NOAA

SALEM MCNARY FIELD, OR, United States (KSLE) 44-54N 123-00W 59M
Dec 16, 2019 - 12:56 AM EST / 2019.12.16 0556 UTC
Wind: Calm:0
Visibility: 5 mile(s):0
Sky conditions: partly cloudy
Weather: mist
Temperature: 35.1 F (1.7 C)
Dew Point: 34.0 F (1.1 C)
Relative Humidity: 95%
Pressure (altimeter): 30.3 in. Hg (1026 hPa)
Pressure tendency: 0.01 inches (0.4 hPa) higher than three hours ago
ob: KSLE 160556Z AUTO 00000KT 5SM BR SCT032 02/01 A3030 RMK AO2 SLP261 T00170011 10061 20011 53004
cycle: 6

Station Type Date Time Source
KSLE TAF 2019/12/16 06:24 UTC NOAA

TAF KSLE 160523Z 1606/1706 00000KT 5SM BR BKN020
FM160900 00000KT 2SM BR OVC010
FM161900 16004KT 6SM BR SCT020 BKN050
FM162100 VRB02KT P6SM SCT100

Example: see airport list